Time;durP1;ratioP1;P1;durP2;ratioP2;P2;SDS_P1;SDS_P2;PMS_P1;PMS_P2;Temp;Humidity;BMP_temperature;BMP_pressure;BME280_temperature;BME280_humidity;BME280_pressure;Samples;Min_cycle;Max_cycle;Signal;HPM_P1;HPM_P2
2022/11/02 00:00:41;;;;;;;9.93;3.93;;;8.40;99.90;;;;;;4969086;28;20635;-90
2022/11/02 00:03:09;;;;;;;7.10;3.80;;;9.00;99.90;;;;;;4970251;28;20993;-90
2022/11/02 00:05:36;;;;;;;4.30;3.50;;;8.80;99.90;;;;;;4969795;28;20644;-90
2022/11/02 00:08:03;;;;;;;5.23;3.27;;;8.80;99.90;;;;;;4970008;28;20622;-90
2022/11/02 00:10:30;;;;;;;6.83;3.40;;;8.70;99.90;;;;;;4969146;28;20741;-89
2022/11/02 00:12:57;;;;;;;3.63;3.20;;;8.90;99.90;;;;;;4974145;28;20679;-89
2022/11/02 00:15:27;;;;;;;5.67;3.60;;;8.60;99.90;;;;;;4968815;28;20686;-89
2022/11/02 00:17:59;;;;;;;6.17;3.90;;;8.90;99.90;;;;;;4968896;28;20678;-90
2022/11/02 00:20:26;;;;;;;7.90;4.80;;;8.60;99.90;;;;;;4970210;28;21271;-89
2022/11/02 00:22:57;;;;;;;5.43;4.00;;;8.20;99.90;;;;;;4971731;28;20966;-89
2022/11/02 00:25:26;;;;;;;8.10;4.70;;;8.10;99.90;;;;;;4971472;28;20626;-89
2022/11/02 00:27:52;;;;;;;4.70;4.20;;;8.70;99.90;;;;;;4974366;28;20647;-89
2022/11/02 00:30:20;;;;;;;5.83;4.10;;;8.80;99.90;;;;;;4973319;28;20653;-88
2022/11/02 00:32:47;;;;;;;6.53;4.00;;;8.80;99.90;;;;;;4971046;28;20630;-89
2022/11/02 00:35:15;;;;;;;5.20;3.63;;;8.60;99.90;;;;;;4970316;28;20669;-89
2022/11/02 00:37:42;;;;;;;7.10;4.43;;;8.40;99.90;;;;;;4973975;28;20632;-90
2022/11/02 00:40:10;;;;;;;6.03;3.90;;;8.30;99.90;;;;;;4967346;28;20664;-90
2022/11/02 00:42:36;;;;;;;6.47;4.40;;;8.70;99.90;;;;;;4972316;28;21169;-89
2022/11/02 00:45:03;;;;;;;4.90;4.40;;;8.40;99.90;;;;;;4968358;28;20633;-89
2022/11/02 00:47:30;;;;;;;5.03;4.50;;;8.50;99.90;;;;;;4968056;28;20652;-88
2022/11/02 00:49:57;;;;;;;6.80;5.07;;;8.70;99.90;;;;;;4969889;28;20661;-88
2022/11/02 00:52:26;;;;;;;5.87;5.10;;;8.50;99.90;;;;;;4974466;28;20633;-90
2022/11/02 00:54:53;;;;;;;5.73;5.23;;;8.60;99.90;;;;;;4975559;28;20699;-90
2022/11/02 00:57:19;;;;;;;9.00;5.47;;;8.00;99.90;;;;;;4979594;28;20666;-90
2022/11/02 00:59:46;;;;;;;5.80;4.83;;;8.70;99.90;;;;;;4973384;28;21245;-90
2022/11/02 01:02:13;;;;;;;5.30;4.80;;;8.40;99.90;;;;;;4977048;28;20633;-90
2022/11/02 01:04:40;;;;;;;7.33;5.07;;;8.60;99.90;;;;;;4974745;28;20632;-90
2022/11/02 01:07:06;;;;;;;8.93;5.87;;;8.40;99.90;;;;;;4971743;28;20633;-91
2022/11/02 01:09:34;;;;;;;7.30;4.47;;;8.10;99.90;;;;;;4969407;28;20645;-91
2022/11/02 01:12:01;;;;;;;11.80;4.87;;;8.50;99.90;;;;;;4974261;28;20630;-91
2022/11/02 01:14:28;;;;;;;4.90;4.20;;;8.40;99.90;;;;;;4973431;28;20780;-92
2022/11/02 01:16:56;;;;;;;6.67;5.50;;;8.30;99.90;;;;;;4974566;28;20628;-91
2022/11/02 01:19:23;;;;;;;6.80;4.97;;;8.50;99.90;;;;;;4974492;28;20872;-91
2022/11/02 01:21:50;;;;;;;5.60;4.63;;;8.20;99.90;;;;;;4970828;28;20630;-91
2022/11/02 01:24:17;;;;;;;6.50;4.77;;;8.40;99.90;;;;;;4978827;28;20629;-90
2022/11/02 01:26:50;;;;;;;5.27;4.57;;;7.80;99.90;;;;;;4972570;28;21451;-90
2022/11/02 01:29:17;;;;;;;7.43;5.57;;;8.40;99.90;;;;;;4970083;28;20649;-90
2022/11/02 01:31:44;;;;;;;5.70;4.40;;;8.30;99.90;;;;;;4970970;28;20636;-90
2022/11/02 01:34:11;;;;;;;4.90;4.50;;;8.20;99.90;;;;;;4972011;28;20634;-89
2022/11/02 01:36:38;;;;;;;6.67;5.43;;;8.00;99.90;;;;;;4973355;28;20630;-91
2022/11/02 01:39:04;;;;;;;4.77;4.40;;;7.80;99.90;;;;;;4976567;28;20646;-91
2022/11/02 01:41:31;;;;;;;6.53;4.90;;;8.20;99.90;;;;;;4977745;28;20637;-90
2022/11/02 01:44:02;;;;;;;7.87;4.53;;;8.00;99.90;;;;;;4979024;28;20643;-89
2022/11/02 01:46:37;;;;;;;7.03;4.60;;;8.40;99.90;;;;;;4966895;28;20633;-90
2022/11/02 01:49:08;;;;;;;7.23;5.00;;;8.30;99.90;;;;;;4969683;28;20657;-90
2022/11/02 01:51:38;;;;;;;6.30;5.70;;;8.30;99.90;;;;;;4974390;28;20637;-91
2022/11/02 01:54:08;;;;;;;5.30;4.80;;;8.40;99.90;;;;;;4965750;28;20630;-89
2022/11/02 01:56:36;;;;;;;6.60;5.20;;;8.30;99.90;;;;;;4969328;28;20673;-89
2022/11/02 01:59:09;;;;;;;9.37;5.63;;;8.50;99.90;;;;;;4971274;28;20645;-90
2022/11/02 02:01:35;;;;;;;6.10;4.73;;;8.30;99.90;;;;;;4968577;28;20637;-90
2022/11/02 02:04:03;;;;;;;5.10;4.70;;;8.30;99.90;;;;;;4964624;28;20644;-89
2022/11/02 02:06:29;;;;;;;7.00;6.30;;;8.30;99.90;;;;;;4970345;28;20634;-89
2022/11/02 02:09:00;;;;;;;6.63;5.93;;;8.10;99.90;;;;;;4965635;28;20664;-89
2022/11/02 02:11:29;;;;;;;10.30;5.87;;;7.90;99.90;;;;;;4966432;28;21446;-89
2022/11/02 02:14:00;;;;;;;6.17;5.57;;;8.30;99.90;;;;;;4969094;28;20632;-88
2022/11/02 02:16:45;;;;;;;6.17;5.67;;;7.80;99.90;;;;;;4965742;28;20666;-88
2022/11/02 02:19:24;;;;;;;6.60;5.87;;;7.90;99.90;;;;;;4967946;28;20656;-90
2022/11/02 02:22:06;;;;;;;5.80;5.30;;;8.40;99.90;;;;;;4963172;28;20988;-89
2022/11/02 02:24:50;;;;;;;5.73;5.00;;;8.30;99.90;;;;;;4962353;28;20628;-88
2022/11/02 02:27:21;;;;;;;8.77;5.70;;;8.20;99.90;;;;;;4966726;28;20610;-90
2022/11/02 02:30:05;;;;;;;5.73;4.90;;;8.30;99.90;;;;;;4968519;28;20645;-90
2022/11/02 02:32:39;;;;;;;5.80;5.27;;;8.30;99.90;;;;;;4969446;28;20625;-90
2022/11/02 02:35:15;;;;;;;7.60;5.73;;;8.50;99.90;;;;;;4968079;28;21437;-91
2022/11/02 02:37:47;;;;;;;6.60;5.43;;;8.40;99.90;;;;;;4973796;28;20636;-90
2022/11/02 02:40:20;;;;;;;5.43;4.90;;;8.30;99.90;;;;;;4968822;28;20656;-90
2022/11/02 02:42:52;;;;;;;5.50;5.00;;;8.40;99.90;;;;;;4968269;28;20640;-90
2022/11/02 02:45:25;;;;;;;8.77;5.50;;;8.50;99.90;;;;;;4965898;28;20626;-90
2022/11/02 02:47:58;;;;;;;6.03;5.10;;;8.50;99.90;;;;;;4970318;28;20628;-90
2022/11/02 02:50:28;;;;;;;5.00;4.50;;;8.40;99.90;;;;;;4972465;28;20978;-90
2022/11/02 02:52:58;;;;;;;5.53;4.23;;;8.40;99.90;;;;;;4971529;28;20636;-89
2022/11/02 02:55:31;;;;;;;5.80;4.60;;;8.50;99.90;;;;;;4972144;28;20672;-90
2022/11/02 02:58:00;;;;;;;5.30;4.37;;;8.10;99.90;;;;;;4971892;28;20633;-89
2022/11/02 03:00:30;;;;;;;6.10;4.67;;;8.40;99.90;;;;;;4969047;28;20665;-90
2022/11/02 03:03:01;;;;;;;5.20;4.70;;;8.60;99.90;;;;;;4971824;28;20629;-90
2022/11/02 03:05:30;;;;;;;7.13;4.07;;;8.40;99.90;;;;;;4972853;28;21233;-89
2022/11/02 03:08:00;;;;;;;3.87;3.57;;;8.50;99.90;;;;;;4953256;28;20654;-90
2022/11/02 03:10:32;;;;;;;6.10;4.77;;;8.50;99.90;;;;;;4970910;28;21213;-90
2022/11/02 03:13:10;;;;;;;5.13;3.70;;;8.40;99.90;;;;;;4969259;28;20686;-90
2022/11/02 03:15:42;;;;;;;4.07;3.77;;;8.70;99.90;;;;;;4968200;28;20665;-87
2022/11/02 03:18:16;;;;;;;7.77;4.80;;;8.60;99.90;;;;;;4967781;28;20645;-86
2022/11/02 03:20:54;;;;;;;5.67;4.37;;;8.60;99.90;;;;;;4971424;28;20636;-86
2022/11/02 03:23:26;;;;;;;4.73;4.33;;;8.60;99.90;;;;;;4970940;28;20703;-90
2022/11/02 03:26:00;;;;;;;8.47;4.30;;;8.60;99.90;;;;;;4969676;28;20707;-87
2022/11/02 03:28:41;;;;;;;4.67;4.10;;;8.40;99.90;;;;;;4971746;28;20625;-89
2022/11/02 03:31:14;;;;;;;4.20;3.90;;;8.60;99.90;;;;;;4960836;28;20631;-87
2022/11/02 03:33:46;;;;;;;6.27;4.20;;;8.60;99.90;;;;;;4966751;28;20625;-88
2022/11/02 03:36:17;;;;;;;4.40;3.77;;;8.70;99.90;;;;;;4968530;28;20665;-88
2022/11/02 03:38:48;;;;;;;5.13;4.17;;;8.20;99.90;;;;;;4979428;28;20667;-88
2022/11/02 03:41:16;;;;;;;6.47;5.13;;;8.50;99.90;;;;;;4970310;28;20640;-86
2022/11/02 03:43:46;;;;;;;5.10;4.20;;;8.70;99.90;;;;;;4971865;28;21213;-87
2022/11/02 03:46:18;;;;;;;4.40;4.00;;;8.20;99.90;;;;;;4968209;28;20644;-86
2022/11/02 03:48:48;;;;;;;3.77;3.47;;;8.60;99.90;;;;;;4976041;28;20660;-87
2022/11/02 03:51:19;;;;;;;4.90;4.33;;;8.30;99.90;;;;;;4967507;28;20634;-87
2022/11/02 03:53:51;;;;;;;6.30;4.50;;;8.80;99.90;;;;;;4963223;28;20639;-87
2022/11/02 03:56:22;;;;;;;5.43;4.57;;;8.60;99.90;;;;;;4969473;28;20668;-89
2022/11/02 03:58:49;;;;;;;4.77;4.27;;;8.40;99.90;;;;;;4968757;28;20661;-88
2022/11/02 04:01:19;;;;;;;5.83;5.27;;;8.50;99.90;;;;;;4969623;28;21047;-88
2022/11/02 04:03:47;;;;;;;5.60;5.10;;;8.70;99.90;;;;;;4969119;28;20629;-87
2022/11/02 04:06:14;;;;;;;7.07;5.43;;;8.50;99.90;;;;;;4933076;28;1043990;-87
2022/11/02 04:08:43;;;;;;;6.03;5.53;;;8.50;99.90;;;;;;4972707;28;20236;-88
2022/11/02 04:16:40;;;;;;;8.50;6.00;;;8.50;99.90;;;;;;4967653;28;20739;-86
2022/11/02 04:19:26;;;;;;;6.53;5.93;;;8.30;99.90;;;;;;4969125;28;20653;-88
2022/11/02 04:27:21;;;;;;;7.43;6.63;;;8.20;99.90;;;;;;4970811;28;20668;-87
2022/11/02 04:29:48;;;;;;;8.00;5.40;;;8.50;99.90;;;;;;4968518;28;20659;-87
2022/11/02 04:33:31;;;;;;;5.80;5.30;;;8.50;99.90;;;;;;4969190;28;20636;-87
2022/11/02 04:35:04;;;;;;;5.97;5.40;;;8.50;99.90;;;;;;4968512;28;21052;-87
2022/11/02 04:40:15;;;;;;;5.40;5.00;;;8.60;99.90;;;;;;4967443;28;21209;-87
2022/11/02 04:42:46;;;;;;;8.20;5.67;;;8.50;99.90;;;;;;4972001;28;20638;-87
2022/11/02 04:45:13;;;;;;;5.20;4.80;;;8.50;99.90;;;;;;4962577;28;20963;-86
2022/11/02 04:47:41;;;;;;;5.27;4.80;;;8.60;99.90;;;;;;4970901;28;20722;-87
2022/11/02 04:50:08;;;;;;;6.00;5.40;;;8.60;99.90;;;;;;4973604;28;20653;-86
2022/11/02 04:52:35;;;;;;;6.53;4.40;;;8.60;99.90;;;;;;4970446;28;20637;-87
2022/11/02 04:55:02;;;;;;;7.47;4.77;;;8.40;99.90;;;;;;4973432;28;20633;-86
2022/11/02 04:57:28;;;;;;;6.83;4.50;;;8.60;99.90;;;;;;4973173;28;20676;-86
2022/11/02 04:59:56;;;;;;;5.10;4.60;;;8.60;99.90;;;;;;4968360;28;20664;-86
2022/11/02 05:02:22;;;;;;;6.50;5.27;;;8.50;99.90;;;;;;4975994;28;20633;-87
2022/11/02 05:04:50;;;;;;;5.33;4.83;;;8.50;99.90;;;;;;4976304;28;20636;-87
2022/11/02 05:07:17;;;;;;;7.40;5.43;;;8.40;99.90;;;;;;4978414;28;20629;-87
2022/11/02 05:09:44;;;;;;;5.47;4.50;;;8.20;99.90;;;;;;4972054;28;20660;-88
2022/11/02 05:12:10;;;;;;;5.30;4.33;;;8.40;99.90;;;;;;4971020;28;20627;-87
2022/11/02 05:14:37;;;;;;;5.40;4.90;;;8.40;99.90;;;;;;4969442;28;20634;-90
2022/11/02 05:17:05;;;;;;;6.10;5.50;;;8.20;99.90;;;;;;4966884;28;20692;-89
2022/11/02 05:19:32;;;;;;;5.90;5.30;;;8.10;99.90;;;;;;4971810;28;20652;-90
2022/11/02 05:22:00;;;;;;;10.43;5.70;;;8.20;99.90;;;;;;4970040;28;20634;-90
2022/11/02 05:24:26;;;;;;;6.27;5.67;;;8.20;99.90;;;;;;4974796;28;20634;-90
2022/11/02 05:26:53;;;;;;;5.10;4.70;;;8.00;99.90;;;;;;4980834;28;21197;-90
2022/11/02 05:29:20;;;;;;;6.67;5.97;;;8.30;99.90;;;;;;4982901;28;20646;-89
2022/11/02 05:31:47;;;;;;;8.63;6.50;;;7.90;99.90;;;;;;4975766;28;20632;-87
2022/11/02 05:34:13;;;;;;;7.03;5.30;;;8.10;99.90;;;;;;4975469;28;20633;-90
2022/11/02 05:36:40;;;;;;;8.87;5.00;;;7.90;99.90;;;;;;4969932;28;20665;-90
2022/11/02 05:39:08;;;;;;;6.27;5.70;;;8.20;99.90;;;;;;4968550;28;20661;-87
2022/11/02 05:41:35;;;;;;;6.63;6.13;;;8.00;99.90;;;;;;4972645;28;20625;-89
2022/11/02 05:44:02;;;;;;;7.27;5.70;;;8.10;99.90;;;;;;4967548;28;20637;-89
2022/11/02 05:46:28;;;;;;;6.37;5.77;;;8.00;99.90;;;;;;4970430;28;20628;-91
2022/11/02 05:48:55;;;;;;;5.13;4.63;;;8.00;99.90;;;;;;4969462;28;20672;-91
2022/11/02 05:51:22;;;;;;;6.20;5.70;;;8.00;99.90;;;;;;4968276;28;21216;-89
2022/11/02 05:53:49;;;;;;;6.00;5.60;;;8.00;99.90;;;;;;4975854;28;20668;-86
2022/11/02 05:56:19;;;;;;;6.67;6.10;;;8.00;99.90;;;;;;4970507;28;20722;-86
2022/11/02 05:58:45;;;;;;;5.80;5.20;;;7.70;99.90;;;;;;4971613;28;20629;-89
2022/11/02 06:01:12;;;;;;;5.67;5.10;;;8.10;99.90;;;;;;4973443;28;20640;-87
2022/11/02 06:03:39;;;;;;;7.83;5.93;;;7.90;99.90;;;;;;4973909;28;20665;-89
2022/11/02 06:06:09;;;;;;;6.70;6.20;;;7.50;99.90;;;;;;4973081;28;20641;-88
2022/11/02 06:08:37;;;;;;;16.60;15.10;;;7.80;99.90;;;;;;4968242;28;20629;-89
2022/11/02 06:11:04;;;;;;;31.57;28.67;;;7.70;99.90;;;;;;4975504;28;20641;-89
2022/11/02 06:13:33;;;;;;;23.57;21.40;;;7.60;99.90;;;;;;4977443;28;20785;-89
2022/11/02 06:16:00;;;;;;;17.90;16.40;;;7.90;99.90;;;;;;4969283;28;20661;-89
2022/11/02 06:18:27;;;;;;;15.40;14.07;;;7.70;99.90;;;;;;4973562;28;20632;-89
2022/11/02 06:20:56;;;;;;;8.20;7.40;;;7.70;99.90;;;;;;4973185;28;20636;-87
2022/11/02 06:23:23;;;;;;;8.70;7.80;;;7.80;99.90;;;;;;4973733;28;21020;-87
2022/11/02 06:25:53;;;;;;;7.07;6.40;;;7.80;99.90;;;;;;4976923;28;20609;-89
2022/11/02 06:28:20;;;;;;;7.60;5.90;;;7.40;99.90;;;;;;4971446;28;20630;-90
2022/11/02 06:30:49;;;;;;;7.23;6.50;;;7.90;99.90;;;;;;4965364;28;20645;-89
2022/11/02 06:33:16;;;;;;;10.60;7.07;;;8.00;99.90;;;;;;4967385;28;20702;-90
2022/11/02 06:35:44;;;;;;;8.57;6.30;;;7.70;99.90;;;;;;4967435;28;20641;-90
2022/11/02 06:38:11;;;;;;;7.20;5.93;;;7.90;99.90;;;;;;4965207;28;20622;-90
2022/11/02 06:40:38;;;;;;;6.93;6.33;;;8.00;99.90;;;;;;4975494;28;21192;-90
2022/11/02 06:43:05;;;;;;;6.70;6.03;;;7.60;99.90;;;;;;4969412;28;20630;-89
2022/11/02 06:45:32;;;;;;;10.10;8.27;;;8.20;99.90;;;;;;4970900;28;20986;-88
2022/11/02 06:48:00;;;;;;;26.30;9.20;;;7.80;99.90;;;;;;4970194;28;20625;-88
2022/11/02 06:50:28;;;;;;;9.90;9.10;;;8.00;99.90;;;;;;4970779;28;21094;-89
2022/11/02 06:52:55;;;;;;;10.40;9.40;;;8.30;99.90;;;;;;4970853;28;20756;-89
2022/11/02 06:55:23;;;;;;;9.97;8.97;;;8.20;99.90;;;;;;4968233;28;21193;-89
2022/11/02 06:57:50;;;;;;;9.93;8.70;;;8.30;99.90;;;;;;4971034;28;20674;-89
2022/11/02 07:00:17;;;;;;;10.40;9.50;;;8.60;99.90;;;;;;4970745;28;20656;-90
2022/11/02 07:02:44;;;;;;;10.47;9.40;;;8.50;99.90;;;;;;4965215;28;20692;-89
2022/11/02 07:05:13;;;;;;;12.50;11.23;;;8.80;99.90;;;;;;4973047;28;20637;-88
2022/11/02 07:07:40;;;;;;;13.83;12.10;;;9.10;99.90;;;;;;4978412;28;20680;-89
2022/11/02 07:10:10;;;;;;;12.03;10.80;;;8.80;99.90;;;;;;4968847;28;20636;-90
2022/11/02 07:12:38;;;;;;;12.17;10.90;;;9.10;99.90;;;;;;4961990;28;20962;-90
2022/11/02 07:15:06;;;;;;;12.87;11.27;;;9.00;99.90;;;;;;4971392;28;20652;-90
2022/11/02 07:17:39;;;;;;;10.37;9.40;;;9.00;99.90;;;;;;4973637;28;20910;-92
2022/11/02 07:20:06;;;;;;;10.83;9.83;;;9.20;99.90;;;;;;4966707;28;21182;-89
2022/11/02 07:22:34;;;;;;;11.77;10.77;;;9.30;99.90;;;;;;4970253;28;21413;-92
2022/11/02 07:25:02;;;;;;;10.30;9.40;;;9.40;99.90;;;;;;4972544;28;20645;-92
2022/11/02 07:27:28;;;;;;;10.67;9.73;;;9.70;99.90;;;;;;4978074;28;21017;-90
2022/11/02 07:29:57;;;;;;;18.13;10.20;;;9.50;99.90;;;;;;4979131;28;20624;-90
2022/11/02 07:32:24;;;;;;;10.87;8.60;;;9.90;99.90;;;;;;4976709;28;20625;-91
2022/11/02 07:34:51;;;;;;;11.23;8.87;;;9.80;99.90;;;;;;4974974;28;20688;-91
2022/11/02 07:37:20;;;;;;;9.40;8.63;;;9.70;99.90;;;;;;4977368;28;20665;-91
2022/11/02 07:39:48;;;;;;;9.10;8.20;;;10.20;99.90;;;;;;4977361;28;20655;-91
2022/11/02 07:42:15;;;;;;;8.37;7.53;;;10.10;99.90;;;;;;4972012;28;20625;-91
2022/11/02 07:44:41;;;;;;;8.20;7.40;;;10.20;99.90;;;;;;4978095;28;20707;-91
2022/11/02 07:47:08;;;;;;;10.73;7.63;;;10.00;99.90;;;;;;4971163;28;20751;-92
2022/11/02 07:49:35;;;;;;;11.40;7.63;;;10.50;99.90;;;;;;4979768;28;20640;-91
2022/11/02 07:52:02;;;;;;;13.37;6.40;;;10.70;99.90;;;;;;4975184;28;20637;-91
2022/11/02 07:54:28;;;;;;;5.80;5.17;;;10.50;99.90;;;;;;4976318;28;20656;-91
2022/11/02 07:56:56;;;;;;;7.30;6.30;;;10.80;99.90;;;;;;4975107;28;20930;-91
2022/11/02 07:59:23;;;;;;;5.10;4.60;;;10.80;99.90;;;;;;4972913;28;20624;-92
2022/11/02 08:01:50;;;;;;;6.30;4.73;;;11.10;99.90;;;;;;4975733;28;20637;-91
2022/11/02 08:04:17;;;;;;;10.33;8.00;;;11.30;99.90;;;;;;4975412;28;20645;-90
2022/11/02 08:06:44;;;;;;;14.03;9.10;;;11.00;99.90;;;;;;4976332;28;20666;-90
2022/11/02 08:09:12;;;;;;;13.63;6.73;;;11.50;99.90;;;;;;4977963;28;20782;-90
2022/11/02 08:11:38;;;;;;;7.07;5.73;;;11.20;99.90;;;;;;4973201;28;20637;-91
2022/11/02 08:14:08;;;;;;;10.90;6.57;;;11.40;99.90;;;;;;4967376;28;20649;-89
2022/11/02 08:16:35;;;;;;;9.53;6.10;;;11.40;99.90;;;;;;4968929;28;20661;-89
2022/11/02 08:19:01;;;;;;;9.63;6.03;;;11.20;99.90;;;;;;4967422;28;20651;-89
2022/11/02 08:21:28;;;;;;;8.93;8.03;;;11.30;99.90;;;;;;4969345;28;20640;-90
2022/11/02 08:23:55;;;;;;;8.53;5.87;;;11.80;99.90;;;;;;4968241;28;20629;-90
2022/11/02 08:26:22;;;;;;;6.03;5.07;;;12.00;99.90;;;;;;4967063;28;20650;-89
2022/11/02 08:28:49;;;;;;;8.47;5.30;;;11.90;99.90;;;;;;4971701;28;20637;-90
2022/11/02 08:31:18;;;;;;;6.80;6.00;;;12.20;99.90;;;;;;4967677;28;21288;-90
2022/11/02 08:33:45;;;;;;;9.13;5.90;;;11.80;99.90;;;;;;4973415;28;20633;-90
2022/11/02 08:36:12;;;;;;;9.53;6.07;;;12.30;99.90;;;;;;4974094;28;20704;-90
2022/11/02 08:38:41;;;;;;;9.50;5.80;;;12.50;99.90;;;;;;4973913;28;20637;-91
2022/11/02 08:41:07;;;;;;;8.80;6.30;;;12.60;99.90;;;;;;4971273;28;20633;-90
2022/11/02 08:43:34;;;;;;;10.63;6.73;;;12.80;99.90;;;;;;4972380;28;20636;-92
2022/11/02 08:46:02;;;;;;;7.30;6.33;;;12.80;99.90;;;;;;4974109;28;20783;-92
2022/11/02 08:48:30;;;;;;;9.20;6.37;;;12.80;99.90;;;;;;4974643;28;20630;-91
2022/11/02 08:50:58;;;;;;;9.27;6.90;;;13.10;99.90;;;;;;4973341;28;20641;-90
2022/11/02 08:53:25;;;;;;;13.83;8.33;;;13.20;99.90;;;;;;4972761;28;20642;-91
2022/11/02 08:55:53;;;;;;;9.37;7.57;;;13.20;99.90;;;;;;4979629;28;20649;-92
2022/11/02 08:58:20;;;;;;;11.40;8.30;;;13.30;99.90;;;;;;4977559;28;20669;-93
2022/11/02 09:00:48;;;;;;;12.70;7.40;;;13.40;99.90;;;;;;4974092;28;20722;-93
2022/11/02 09:03:17;;;;;;;9.00;6.33;;;13.60;99.90;;;;;;4970562;28;20629;-92
2022/11/02 09:05:47;;;;;;;9.20;6.57;;;13.70;99.90;;;;;;4971615;28;20733;-92
2022/11/02 09:08:16;;;;;;;13.33;6.60;;;13.70;99.90;;;;;;4974419;28;20748;-93
2022/11/02 09:10:44;;;;;;;11.87;6.73;;;13.80;99.90;;;;;;4964986;28;20645;-92
2022/11/02 09:13:13;;;;;;;11.27;5.20;;;14.00;99.90;;;;;;4971320;28;20634;-93
2022/11/02 09:15:41;;;;;;;9.90;5.50;;;14.10;99.90;;;;;;4979891;28;20660;-92
2022/11/02 09:18:08;;;;;;;10.60;5.83;;;14.10;99.90;;;;;;4971238;28;20665;-93
2022/11/02 09:20:36;;;;;;;9.70;5.50;;;14.10;99.90;;;;;;4971406;28;20639;-92
2022/11/02 09:23:04;;;;;;;13.20;6.17;;;14.10;99.90;;;;;;4974776;28;21233;-93
2022/11/02 09:25:31;;;;;;;12.03;5.70;;;14.20;99.90;;;;;;4972260;28;20664;-92
2022/11/02 09:27:58;;;;;;;15.40;5.77;;;14.30;99.90;;;;;;4977738;28;20648;-93
2022/11/02 09:30:27;;;;;;;9.07;5.77;;;14.30;99.90;;;;;;4973096;28;20629;-93
2022/11/02 09:32:55;;;;;;;9.93;5.07;;;14.50;99.90;;;;;;4970874;28;20630;-92
2022/11/02 09:35:22;;;;;;;7.60;4.60;;;14.60;99.90;;;;;;4957983;28;20653;-92
2022/11/02 09:37:49;;;;;;;7.17;3.90;;;14.60;99.90;;;;;;4984954;28;20672;-93
2022/11/02 09:40:21;;;;;;;10.20;5.07;;;14.70;99.90;;;;;;4977934;28;20632;-93
2022/11/02 09:42:58;;;;;;;5.90;3.97;;;14.80;99.90;;;;;;4971108;28;20625;-91
2022/11/02 09:45:27;;;;;;;9.23;3.77;;;14.80;99.90;;;;;;4973812;28;20664;-95
2022/11/02 09:47:59;;;;;;;4.10;3.43;;;14.80;99.90;;;;;;4975468;28;20624;-92
2022/11/02 09:50:34;;;;;;;8.00;4.17;;;14.90;99.90;;;;;;4973646;28;20625;-93
2022/11/02 09:53:04;;;;;;;7.50;3.93;;;15.00;99.90;;;;;;4973822;28;20633;-92
2022/11/02 09:55:37;;;;;;;8.17;3.67;;;15.20;99.90;;;;;;4967005;28;21041;-91
2022/11/02 09:58:12;;;;;;;10.83;3.33;;;15.20;99.90;;;;;;4966853;28;20677;-92
2022/11/02 10:00:41;;;;;;;10.97;3.77;;;15.30;99.90;;;;;;4970027;28;20639;-92
2022/11/02 10:03:21;;;;;;;7.23;3.23;;;15.30;99.90;;;;;;4968242;28;20630;-92
2022/11/02 10:05:53;;;;;;;4.87;2.70;;;15.40;99.90;;;;;;4973457;28;21310;-90
2022/11/02 10:08:30;;;;;;;6.10;3.43;;;15.50;99.90;;;;;;4971971;28;20670;-93
2022/11/02 10:11:14;;;;;;;8.83;3.10;;;15.60;99.90;;;;;;4973938;28;20628;-93
2022/11/02 10:13:46;;;;;;;3.97;2.10;;;15.70;99.90;;;;;;4967947;28;20630;-92
2022/11/02 10:16:19;;;;;;;4.10;2.60;;;15.70;99.90;;;;;;4971176;28;20714;-92
2022/11/02 10:18:49;;;;;;;5.67;2.30;;;15.80;99.90;;;;;;4975672;28;20675;-92
2022/11/02 10:21:20;;;;;;;3.83;2.00;;;15.80;99.90;;;;;;4972799;28;20749;-93
2022/11/02 10:23:51;;;;;;;3.83;1.80;;;15.80;99.90;;;;;;4971366;28;20664;-92
2022/11/02 10:26:24;;;;;;;5.90;2.20;;;15.90;99.90;;;;;;4973055;28;20664;-93
2022/11/02 10:28:59;;;;;;;2.70;1.70;;;16.00;99.90;;;;;;4975553;28;20621;-93
2022/11/02 10:31:28;;;;;;;3.63;1.40;;;16.00;99.90;;;;;;4973653;28;20624;-94
2022/11/02 10:33:57;;;;;;;5.33;1.90;;;16.00;99.90;;;;;;4973382;28;20645;-93
2022/11/02 10:36:36;;;;;;;4.07;1.63;;;16.00;99.90;;;;;;4972156;28;21237;-92
2022/11/02 10:39:14;;;;;;;6.50;2.60;;;16.00;99.90;;;;;;4970193;28;21264;-91
2022/11/02 10:42:20;;;;;;;8.93;2.70;;;16.10;99.90;;;;;;4971696;28;20635;-93
2022/11/02 10:45:05;;;;;;;4.50;1.77;;;16.20;99.90;;;;;;4968232;28;20666;-92
2022/11/02 10:47:37;;;;;;;6.53;1.80;;;16.30;99.90;;;;;;4971834;28;21150;-93
2022/11/02 10:50:30;;;;;;;7.23;2.60;;;16.40;99.90;;;;;;4975991;28;20656;-93
2022/11/02 10:53:01;;;;;;;7.10;3.07;;;16.40;99.90;;;;;;4972545;28;20624;-94
2022/11/02 10:55:36;;;;;;;5.83;1.90;;;16.40;99.90;;;;;;4970485;28;20661;-92
2022/11/02 10:58:07;;;;;;;5.33;2.40;;;16.40;99.90;;;;;;4973397;28;20649;-92
2022/11/02 11:00:35;;;;;;;5.50;2.43;;;16.40;99.90;;;;;;4971056;28;20633;-91
2022/11/02 11:03:05;;;;;;;7.10;2.63;;;16.50;99.90;;;;;;4973380;28;21284;-92
2022/11/02 11:05:33;;;;;;;8.13;2.50;;;16.50;99.90;;;;;;4969670;28;20695;-91
2022/11/02 11:08:00;;;;;;;7.63;3.17;;;16.50;99.90;;;;;;4971732;28;20638;-91
2022/11/02 11:10:37;;;;;;;4.80;2.80;;;16.60;99.90;;;;;;4972416;28;20966;-91
2022/11/02 11:13:15;;;;;;;8.80;3.73;;;16.60;99.90;;;;;;4970715;28;20637;-91
2022/11/02 11:15:43;;;;;;;7.47;3.23;;;16.60;99.90;;;;;;4970807;28;21261;-91
2022/11/02 11:18:14;;;;;;;8.10;2.93;;;16.50;99.90;;;;;;4973452;28;20668;-91
2022/11/02 11:20:42;;;;;;;6.87;1.87;;;16.50;99.90;;;;;;4979130;28;20655;-92
2022/11/02 11:23:20;;;;;;;2.80;1.73;;;16.50;99.90;;;;;;4977090;28;21177;-92
2022/11/02 11:25:58;;;;;;;3.17;1.40;;;16.50;99.90;;;;;;4980793;28;20661;-91
2022/11/02 11:28:30;;;;;;;4.00;1.83;;;16.50;99.90;;;;;;4975440;28;20620;-91
2022/11/02 11:31:07;;;;;;;6.07;2.03;;;16.40;99.90;;;;;;4977254;28;20625;-91
2022/11/02 11:33:42;;;;;;;6.63;1.80;;;16.40;99.90;;;;;;4971952;28;20736;-90
2022/11/02 11:36:11;;;;;;;4.93;1.67;;;16.40;99.90;;;;;;4976994;28;20657;-91
2022/11/02 11:38:46;;;;;;;4.53;2.00;;;16.40;99.90;;;;;;4970071;28;20680;-93
2022/11/02 11:41:13;;;;;;;7.60;2.13;;;16.30;99.90;;;;;;4972685;28;20676;-90
2022/11/02 11:43:42;;;;;;;4.80;1.80;;;16.40;99.90;;;;;;4971937;28;20629;-90
2022/11/02 11:46:13;;;;;;;5.50;1.77;;;16.30;99.90;;;;;;4963128;28;21008;-92
2022/11/02 11:48:42;;;;;;;8.77;1.70;;;16.30;99.90;;;;;;4970469;28;20629;-91
2022/11/02 11:51:26;;;;;;;4.53;1.60;;;16.30;99.90;;;;;;4966415;28;20622;-91
2022/11/02 11:54:19;;;;;;;7.80;1.40;;;16.40;99.90;;;;;;4968228;28;20675;-90
2022/11/02 11:56:47;;;;;;;4.10;1.30;;;16.70;99.90;;;;;;4968953;28;20636;-90
2022/11/02 11:59:28;;;;;;;3.23;1.93;;;17.20;99.90;;;;;;4972502;28;20652;-92
2022/11/02 12:02:00;;;;;;;4.87;1.73;;;17.90;43.90;;;;;;4966570;28;20703;-91
2022/11/02 12:04:32;;;;;;;3.83;1.80;;;18.40;99.90;;;;;;4975975;28;20668;-91
2022/11/02 12:07:30;;;;;;;3.47;1.80;;;19.00;1.00;;;;;;4976606;28;20637;-92
2022/11/02 12:10:04;;;;;;;5.93;1.73;;;19.70;1.00;;;;;;4962732;28;20644;-92
2022/11/02 12:12:43;;;;;;;6.67;1.53;;;20.00;99.90;;;;;;4972775;28;20625;-90
2022/11/02 12:15:22;;;;;;;4.33;1.43;;;20.40;1.00;;;;;;4969274;28;21265;-92
2022/11/02 12:18:17;;;;;;;3.13;1.70;;;21.00;1.00;;;;;;4971033;28;20787;-91
2022/11/02 12:20:56;;;;;;;8.07;1.70;;;21.50;1.00;;;;;;4966741;28;20637;-92
2022/11/02 12:23:41;;;;;;;3.20;1.00;;;22.20;1.00;;;;;;4965654;28;20630;-92
2022/11/02 12:26:21;;;;;;;3.20;1.80;;;22.90;1.00;;;;;;4973226;28;20657;-92
2022/11/02 12:29:01;;;;;;;5.27;2.03;;;23.50;1.00;;;;;;4973607;28;20624;-92
2022/11/02 12:31:36;;;;;;;4.43;1.70;;;24.10;99.90;;;;;;4974203;28;21013;-92
2022/11/02 12:34:36;;;;;;;5.30;1.77;;;24.40;1.00;;;;;;4970578;28;20636;-92
2022/11/02 12:37:16;;;;;;;8.43;1.97;;;24.70;1.00;;;;;;4952970;28;20649;-92
2022/11/02 12:40:03;;;;;;;2.70;1.20;;;25.20;1.00;;;;;;4960756;28;20643;-93
2022/11/02 12:42:34;;;;;;;6.07;1.70;;;25.50;31.70;;;;;;4974768;28;21002;-94
2022/11/02 12:45:23;;;;;;;9.73;2.23;;;25.50;43.90;;;;;;4969835;28;20649;-92
2022/11/02 12:47:57;;;;;;;4.63;2.23;;;25.40;38.70;;;;;;4967226;28;20722;-92
2022/11/02 12:50:36;;;;;;;5.87;1.70;;;24.90;40.50;;;;;;4966915;28;20629;-92
2022/11/02 12:53:20;;;;;;;2.70;1.17;;;24.10;38.20;;;;;;4969449;28;20636;-91
2022/11/02 12:55:51;;;;;;;4.30;1.73;;;23.20;35.40;;;;;;4970543;28;20665;-93
2022/11/02 12:58:21;;;;;;;5.80;2.43;;;22.60;35.70;;;;;;4967670;28;20677;-92
2022/11/02 13:00:53;;;;;;;5.70;2.00;;;21.90;41.10;;;;;;4969710;28;20739;-92
2022/11/02 13:03:34;;;;;;;6.57;2.40;;;21.60;43.80;;;;;;4970722;28;20636;-92
2022/11/02 13:06:06;;;;;;;4.70;1.77;;;21.50;41.80;;;;;;4970131;28;21336;-92
2022/11/02 13:08:38;;;;;;;6.20;2.10;;;21.50;40.10;;;;;;4967224;28;20628;-91
2022/11/02 13:11:09;;;;;;;3.93;1.67;;;21.20;39.10;;;;;;4966261;28;20629;-92
2022/11/02 13:13:42;;;;;;;4.20;1.43;;;21.00;45.20;;;;;;4964691;28;20630;-90
2022/11/02 13:16:10;;;;;;;3.10;1.40;;;20.90;45.80;;;;;;4962868;28;20657;-90
2022/11/02 13:18:44;;;;;;;2.77;1.47;;;21.30;41.10;;;;;;4966124;28;21122;-91
2022/11/02 13:21:13;;;;;;;4.40;1.70;;;21.70;41.70;;;;;;4978093;28;20636;-91